Time;durP1;ratioP1;P1;durP2;ratioP2;P2;SDS_P1;SDS_P2;PMS_P1;PMS_P2;Temp;Humidity;BMP_temperature;BMP_pressure;BME280_temperature;BME280_humidity;BME280_pressure;Samples;Min_cycle;Max_cycle;Signal;HPM_P1;HPM_P2
2023/01/17 00:00:24;;;;;;;3.77;3.00;;;3.20;99.90;;;;;;5013013;28;20541;-65
2023/01/17 00:02:51;;;;;;;4.47;2.80;;;3.20;99.90;;;;;;5019517;28;20972;-65
2023/01/17 00:10:48;;;;;;;2.97;2.63;;;3.20;99.90;;;;;;5015137;28;20540;-66
2023/01/17 00:13:14;;;;;;;4.70;2.90;;;3.20;99.90;;;;;;5017071;28;20802;-65
2023/01/17 00:15:41;;;;;;;3.03;2.67;;;3.20;99.90;;;;;;5012484;28;21258;-66
2023/01/17 00:18:08;;;;;;;3.93;2.60;;;3.20;99.90;;;;;;5016513;28;20520;-65
2023/01/17 00:26:12;;;;;;;3.40;3.10;;;3.10;99.90;;;;;;5012775;28;20521;-66
2023/01/17 01:35:43;;;;;;;7.37;3.20;;;3.00;99.90;;;;;;5011448;28;20433;-66
2023/01/17 01:38:10;;;;;;;2.90;2.20;;;3.00;99.90;;;;;;5018880;28;20886;-66
2023/01/17 01:40:42;;;;;;;7.40;2.77;;;3.00;99.90;;;;;;5019080;28;20477;-65
2023/01/17 01:43:12;;;;;;;4.40;2.07;;;2.90;99.90;;;;;;5024850;28;20481;-66
2023/01/17 01:45:39;;;;;;;4.80;2.33;;;2.90;99.90;;;;;;5020190;28;20455;-65
2023/01/17 01:48:14;;;;;;;3.50;2.40;;;2.90;99.90;;;;;;5011215;28;20458;-66
2023/01/17 01:50:42;;;;;;;5.17;2.60;;;2.90;99.90;;;;;;5013097;28;20531;-65
2023/01/17 01:53:09;;;;;;;4.03;2.17;;;2.80;99.90;;;;;;5019781;28;20542;-65
2023/01/17 01:55:40;;;;;;;2.87;2.67;;;2.80;99.90;;;;;;5014468;28;20462;-65
2023/01/17 01:58:12;;;;;;;4.03;2.30;;;2.80;99.90;;;;;;5021534;28;20458;-66
2023/01/17 02:00:40;;;;;;;5.30;3.07;;;2.80;99.90;;;;;;5015508;28;21056;-65
2023/01/17 02:03:10;;;;;;;3.93;2.43;;;2.80;99.90;;;;;;5023299;28;20505;-66
2023/01/17 02:05:37;;;;;;;3.20;2.47;;;2.90;99.90;;;;;;5017614;28;20887;-66
2023/01/17 02:08:06;;;;;;;5.20;2.50;;;2.90;99.90;;;;;;5015257;28;20447;-65
2023/01/17 02:10:33;;;;;;;4.90;2.70;;;2.90;99.90;;;;;;5015539;28;20477;-65
2023/01/17 02:13:01;;;;;;;3.43;2.50;;;2.90;99.90;;;;;;5022824;28;20521;-66
2023/01/17 02:15:32;;;;;;;3.10;2.43;;;2.90;99.90;;;;;;5014613;28;20540;-66
2023/01/17 02:18:09;;;;;;;8.50;2.90;;;2.90;99.90;;;;;;5017195;28;20951;-65
2023/01/17 02:20:58;;;;;;;2.20;2.10;;;2.80;99.90;;;;;;5018994;28;20910;-66
2023/01/17 02:24:15;;;;;;;3.10;2.60;;;2.80;99.90;;;;;;5022895;28;20489;-66
2023/01/17 02:26:52;;;;;;;4.70;2.60;;;2.80;99.90;;;;;;5015015;28;20512;-65
2023/01/17 02:29:54;;;;;;;3.70;2.90;;;2.80;99.90;;;;;;5014931;28;20442;-66
2023/01/17 02:32:32;;;;;;;2.63;2.43;;;2.70;99.90;;;;;;5020885;28;20519;-65
2023/01/17 02:35:04;;;;;;;3.00;2.27;;;2.60;99.90;;;;;;5027216;28;20509;-66
2023/01/17 02:37:40;;;;;;;2.30;2.10;;;2.60;99.90;;;;;;5014567;28;20486;-65
2023/01/17 02:40:13;;;;;;;3.77;2.70;;;2.50;99.90;;;;;;5024809;28;20848;-65
2023/01/17 02:42:45;;;;;;;4.90;2.77;;;2.60;99.90;;;;;;5018106;28;20481;-65
2023/01/17 02:45:17;;;;;;;5.27;2.80;;;2.50;99.90;;;;;;5026006;28;21001;-66
2023/01/17 02:47:45;;;;;;;3.00;2.07;;;2.50;99.90;;;;;;5015599;28;20971;-65
2023/01/17 02:50:16;;;;;;;4.30;2.20;;;2.40;99.90;;;;;;5014561;28;20446;-65
2023/01/17 02:52:56;;;;;;;4.87;2.67;;;2.40;99.90;;;;;;5028559;28;20961;-65
2023/01/17 02:55:31;;;;;;;8.30;2.43;;;2.50;99.90;;;;;;5018574;28;20524;-65
2023/01/17 02:58:13;;;;;;;2.47;2.27;;;2.50;99.90;;;;;;5017749;28;20458;-65
2023/01/17 03:00:50;;;;;;;6.90;3.23;;;2.50;99.90;;;;;;5014168;28;20489;-65
2023/01/17 03:03:22;;;;;;;3.73;2.70;;;2.50;99.90;;;;;;5020835;28;20523;-65
2023/01/17 03:05:53;;;;;;;2.57;2.37;;;2.50;99.90;;;;;;5022500;28;20970;-65
2023/01/17 03:08:22;;;;;;;4.50;2.60;;;2.50;99.90;;;;;;5020923;28;20500;-65
2023/01/17 03:10:49;;;;;;;2.33;1.93;;;2.50;99.90;;;;;;5014192;28;20483;-65
2023/01/17 03:13:15;;;;;;;2.60;2.40;;;2.40;99.90;;;;;;5022470;28;20457;-65
2023/01/17 03:15:42;;;;;;;4.90;2.33;;;2.40;99.90;;;;;;5015484;28;20494;-65
2023/01/17 03:18:13;;;;;;;5.73;2.50;;;2.40;99.90;;;;;;5013874;28;21081;-65
2023/01/17 03:20:41;;;;;;;2.57;2.20;;;2.40;99.90;;;;;;5014338;28;20486;-65
2023/01/17 03:23:08;;;;;;;2.77;2.40;;;2.40;99.90;;;;;;5024952;28;20930;-66
2023/01/17 03:25:35;;;;;;;7.60;2.40;;;2.30;99.90;;;;;;5021723;28;20461;-66
2023/01/17 03:28:01;;;;;;;6.97;2.13;;;2.30;99.90;;;;;;5013939;28;20504;-66
2023/01/17 03:30:28;;;;;;;3.87;2.43;;;2.30;99.90;;;;;;5014167;28;21052;-65
2023/01/17 03:32:54;;;;;;;3.33;3.03;;;2.30;99.90;;;;;;5023359;28;20516;-65
2023/01/17 03:35:21;;;;;;;2.17;2.00;;;2.30;99.90;;;;;;5018333;28;20451;-65
2023/01/17 03:37:49;;;;;;;2.20;2.10;;;2.30;99.90;;;;;;5013383;28;20451;-65
2023/01/17 03:40:16;;;;;;;2.40;2.30;;;2.30;99.90;;;;;;5018768;28;20449;-65
2023/01/17 03:42:43;;;;;;;3.10;2.30;;;2.30;99.90;;;;;;5016500;28;20446;-66
2023/01/17 03:45:10;;;;;;;5.00;2.00;;;2.20;99.90;;;;;;5019866;28;20889;-65
2023/01/17 03:47:37;;;;;;;6.00;2.20;;;2.20;99.90;;;;;;5013391;28;20455;-65
2023/01/17 03:50:04;;;;;;;3.17;2.23;;;2.20;99.90;;;;;;5026193;28;20441;-65
2023/01/17 03:52:31;;;;;;;2.77;2.20;;;2.30;99.90;;;;;;5019565;28;20458;-65
2023/01/17 03:55:01;;;;;;;3.30;1.87;;;2.30;99.90;;;;;;5020578;28;20867;-65
2023/01/17 03:57:28;;;;;;;3.37;2.27;;;2.30;99.90;;;;;;5013541;28;20459;-66
2023/01/17 03:59:54;;;;;;;3.70;2.50;;;2.30;99.90;;;;;;5013353;28;20503;-65
2023/01/17 04:02:21;;;;;;;2.33;2.10;;;2.20;99.90;;;;;;5016663;28;20470;-66
2023/01/17 04:04:47;;;;;;;3.00;2.03;;;2.20;99.90;;;;;;5021416;28;20487;-66
2023/01/17 04:07:14;;;;;;;2.03;1.93;;;2.20;99.90;;;;;;5018765;28;20451;-66
2023/01/17 04:09:41;;;;;;;3.43;2.07;;;2.20;99.90;;;;;;5013098;28;20451;-65
2023/01/17 04:12:09;;;;;;;2.40;2.20;;;2.20;99.90;;;;;;5013076;28;20890;-65
2023/01/17 04:14:35;;;;;;;2.77;2.00;;;2.20;99.90;;;;;;5019954;28;20947;-65
2023/01/17 04:17:02;;;;;;;4.50;2.20;;;2.10;99.90;;;;;;5021412;28;20459;-66
2023/01/17 04:19:31;;;;;;;1.97;1.80;;;2.20;99.90;;;;;;5012723;28;20966;-65
2023/01/17 04:21:57;;;;;;;2.37;1.73;;;2.10;99.90;;;;;;5015006;28;20525;-65
2023/01/17 04:24:24;;;;;;;7.00;1.90;;;2.10;99.90;;;;;;5020547;28;20478;-66
2023/01/17 04:26:51;;;;;;;2.23;1.80;;;2.10;99.90;;;;;;5020181;28;20458;-65
2023/01/17 04:29:19;;;;;;;2.50;2.03;;;2.00;99.90;;;;;;5013644;28;20495;-65
2023/01/17 04:31:46;;;;;;;3.00;1.73;;;2.00;99.90;;;;;;5012501;28;20549;-66
2023/01/17 04:34:13;;;;;;;1.87;1.77;;;2.00;99.90;;;;;;5019426;28;20455;-65
2023/01/17 04:36:39;;;;;;;2.13;2.03;;;2.00;99.90;;;;;;5023414;28;20503;-65
2023/01/17 04:39:06;;;;;;;5.83;2.10;;;2.00;99.90;;;;;;5012547;28;20454;-66
2023/01/17 04:41:33;;;;;;;1.83;1.70;;;2.00;99.90;;;;;;5019692;28;20524;-65
2023/01/17 04:44:00;;;;;;;2.40;1.83;;;2.00;99.90;;;;;;5025973;28;20486;-66
2023/01/17 04:46:28;;;;;;;4.20;1.83;;;2.00;99.90;;;;;;5012499;28;20463;-66
2023/01/17 04:48:55;;;;;;;2.50;1.80;;;2.10;99.90;;;;;;5014767;28;20513;-66
2023/01/17 04:51:21;;;;;;;2.40;2.30;;;2.00;99.90;;;;;;5016061;28;20842;-66
2023/01/17 04:53:48;;;;;;;2.20;1.93;;;2.00;99.90;;;;;;5019833;28;20485;-66
2023/01/17 04:56:15;;;;;;;1.83;1.73;;;2.00;99.90;;;;;;5012248;28;20516;-66
2023/01/17 04:58:41;;;;;;;3.40;1.83;;;2.00;99.90;;;;;;5011907;28;20509;-66
2023/01/17 05:01:08;;;;;;;5.53;2.20;;;1.90;99.90;;;;;;5012388;28;20528;-66
2023/01/17 05:03:36;;;;;;;7.20;2.23;;;1.80;99.90;;;;;;5018309;28;20454;-66
2023/01/17 05:06:03;;;;;;;2.37;2.00;;;1.80;99.90;;;;;;5012178;28;20446;-66
2023/01/17 05:08:30;;;;;;;3.63;1.93;;;1.80;99.90;;;;;;5012089;28;20455;-66
2023/01/17 05:10:57;;;;;;;2.90;1.87;;;1.70;99.90;;;;;;5011833;28;20477;-66
2023/01/17 05:13:23;;;;;;;2.00;1.80;;;1.70;99.90;;;;;;5024757;28;20477;-66
2023/01/17 05:15:50;;;;;;;2.03;1.73;;;1.70;99.90;;;;;;5012833;28;20454;-66
2023/01/17 05:18:18;;;;;;;1.97;1.87;;;1.60;99.90;;;;;;5015239;28;20501;-66
2023/01/17 05:20:46;;;;;;;3.27;1.97;;;1.60;99.90;;;;;;5021114;28;21001;-66
2023/01/17 05:23:13;;;;;;;5.83;2.40;;;1.50;99.90;;;;;;5016743;28;20450;-66
2023/01/17 05:25:43;;;;;;;2.23;2.03;;;1.50;99.90;;;;;;5018956;28;20895;-66
2023/01/17 05:28:10;;;;;;;2.30;2.07;;;1.40;99.90;;;;;;5011974;28;20509;-66
2023/01/17 05:30:37;;;;;;;2.80;1.80;;;1.40;99.90;;;;;;5012867;28;20957;-66
2023/01/17 05:33:03;;;;;;;2.47;2.07;;;1.40;99.90;;;;;;5024805;28;20458;-66
2023/01/17 05:35:32;;;;;;;4.13;2.10;;;1.30;99.90;;;;;;5016130;28;20454;-66
2023/01/17 05:38:00;;;;;;;4.27;2.27;;;1.30;99.90;;;;;;5013395;28;20451;-66
2023/01/17 05:40:28;;;;;;;2.83;2.20;;;1.20;99.90;;;;;;5011829;28;20475;-66
2023/01/17 05:42:57;;;;;;;2.40;2.17;;;1.20;99.90;;;;;;5026317;28;20461;-66
2023/01/17 05:45:26;;;;;;;3.80;2.73;;;1.20;99.90;;;;;;5024571;28;22372;-66
2023/01/17 05:47:54;;;;;;;6.40;2.43;;;1.10;99.90;;;;;;5020868;28;20934;-66
2023/01/17 05:50:23;;;;;;;5.53;3.13;;;1.10;99.90;;;;;;5016651;28;20475;-66
2023/01/17 05:52:50;;;;;;;4.10;2.50;;;1.00;99.90;;;;;;5017278;28;20508;-66
2023/01/17 05:55:19;;;;;;;5.03;2.30;;;0.90;99.90;;;;;;5019989;28;20446;-66
2023/01/17 05:57:45;;;;;;;3.43;2.63;;;0.90;99.90;;;;;;5018214;28;20985;-67
2023/01/17 06:00:13;;;;;;;2.90;2.37;;;0.90;99.90;;;;;;5019407;28;20512;-67
2023/01/17 06:02:40;;;;;;;4.63;2.57;;;0.90;99.90;;;;;;5019856;28;20578;-66
2023/01/17 06:05:07;;;;;;;8.00;2.80;;;0.90;99.90;;;;;;5018223;28;20533;-67
2023/01/17 06:07:34;;;;;;;4.07;2.73;;;0.90;99.90;;;;;;5011407;28;20454;-67
2023/01/17 06:10:01;;;;;;;7.27;2.70;;;0.90;99.90;;;;;;5015843;28;20455;-67
2023/01/17 06:12:29;;;;;;;6.33;2.70;;;0.90;99.90;;;;;;5012516;28;20451;-65
2023/01/17 06:14:55;;;;;;;2.97;2.77;;;0.90;99.90;;;;;;5020698;28;20503;-66
2023/01/17 06:17:22;;;;;;;4.13;3.00;;;0.90;99.90;;;;;;5015593;28;20521;-66
2023/01/17 06:19:48;;;;;;;4.50;2.47;;;0.80;99.90;;;;;;5009584;28;20470;-66
2023/01/17 06:22:15;;;;;;;3.40;2.47;;;0.90;99.90;;;;;;5010155;28;20474;-65
2023/01/17 06:24:42;;;;;;;3.43;2.67;;;0.80;99.90;;;;;;5018103;28;20481;-66
2023/01/17 06:27:09;;;;;;;5.27;2.90;;;0.90;99.90;;;;;;5009924;28;21002;-65
2023/01/17 06:29:38;;;;;;;8.00;2.80;;;0.80;99.90;;;;;;5011649;28;20459;-66
2023/01/17 06:32:05;;;;;;;2.47;2.30;;;0.80;99.90;;;;;;5016403;28;20470;-66
2023/01/17 06:34:31;;;;;;;6.70;3.17;;;0.90;99.90;;;;;;5023579;28;20446;-66
2023/01/17 06:36:58;;;;;;;4.30;2.60;;;0.80;99.90;;;;;;5017618;28;20460;-66
2023/01/17 06:39:25;;;;;;;2.63;2.43;;;0.80;99.90;;;;;;5010775;28;20446;-66
2023/01/17 06:41:52;;;;;;;4.00;2.83;;;0.80;99.90;;;;;;5010366;28;20466;-66
2023/01/17 06:44:18;;;;;;;2.67;2.47;;;0.80;99.90;;;;;;5022030;28;20531;-65
2023/01/17 06:46:47;;;;;;;7.53;2.93;;;0.80;99.90;;;;;;5015911;28;20447;-66
2023/01/17 06:49:14;;;;;;;4.77;3.10;;;0.70;99.90;;;;;;5016916;28;20513;-66
2023/01/17 06:51:40;;;;;;;5.73;3.03;;;0.80;99.90;;;;;;5021459;28;20529;-66
2023/01/17 06:54:08;;;;;;;3.67;2.90;;;0.80;99.90;;;;;;5014706;28;20505;-66
2023/01/17 06:56:36;;;;;;;5.00;3.67;;;0.70;99.90;;;;;;5014160;28;20524;-66
2023/01/17 06:59:03;;;;;;;6.70;3.53;;;0.70;99.90;;;;;;5014439;28;20451;-66
2023/01/17 07:01:30;;;;;;;5.37;3.47;;;0.70;99.90;;;;;;5014303;28;20474;-67
2023/01/17 07:03:58;;;;;;;4.50;3.17;;;0.70;99.90;;;;;;5015506;28;20466;-67
2023/01/17 07:06:27;;;;;;;6.13;3.93;;;0.60;99.90;;;;;;5021207;28;20486;-67
2023/01/17 07:08:54;;;;;;;7.30;4.27;;;0.60;99.90;;;;;;5014003;28;20458;-67
2023/01/17 07:11:21;;;;;;;8.80;4.90;;;0.60;99.90;;;;;;5027377;28;20465;-67
2023/01/17 07:13:47;;;;;;;26.10;10.75;;;0.60;99.90;;;;;;5015295;28;20863;-66
2023/01/17 07:16:14;;;;;;;16.10;6.73;;;0.60;99.90;;;;;;5013635;28;20204;-66
2023/01/17 07:18:41;;;;;;;5.60;3.97;;;0.60;99.90;;;;;;5016417;28;20463;-66
2023/01/17 07:21:12;;;;;;;3.70;3.40;;;0.60;99.90;;;;;;5021071;28;20475;-66
2023/01/17 07:23:39;;;;;;;6.17;3.90;;;0.60;99.90;;;;;;5014289;28;20463;-66
2023/01/17 07:26:06;;;;;;;4.47;3.40;;;0.60;99.90;;;;;;5017456;28;20494;-66
2023/01/17 07:28:33;;;;;;;3.47;3.17;;;0.60;99.90;;;;;;5014677;28;20524;-66
2023/01/17 07:31:05;;;;;;;5.80;3.30;;;0.60;99.90;;;;;;5023007;28;20501;-67
2023/01/17 07:33:32;;;;;;;8.73;3.30;;;0.70;99.90;;;;;;5025510;28;20455;-66
2023/01/17 07:35:58;;;;;;;4.53;3.60;;;0.80;99.90;;;;;;5020818;28;20450;-66
2023/01/17 07:38:26;;;;;;;6.33;3.30;;;0.80;99.90;;;;;;5013691;28;20822;-66
2023/01/17 07:40:57;;;;;;;5.70;3.30;;;0.80;99.90;;;;;;5021250;28;20478;-66
2023/01/17 07:43:24;;;;;;;6.30;3.23;;;0.80;99.90;;;;;;5021379;28;20459;-67
2023/01/17 07:45:51;;;;;;;6.43;4.07;;;0.90;99.90;;;;;;5023917;28;20487;-67
2023/01/17 07:48:18;;;;;;;5.90;3.60;;;0.90;99.90;;;;;;5013143;28;20477;-67
2023/01/17 07:50:45;;;;;;;6.63;3.67;;;1.00;99.90;;;;;;5020764;28;21013;-67
2023/01/17 07:53:11;;;;;;;4.97;3.50;;;1.00;99.90;;;;;;5020544;28;20501;-66
2023/01/17 07:55:39;;;;;;;6.50;3.10;;;1.00;99.90;;;;;;5016140;28;20447;-67
2023/01/17 07:58:06;;;;;;;4.83;2.93;;;1.00;99.90;;;;;;5012399;28;20856;-67
2023/01/17 08:00:33;;;;;;;3.40;3.10;;;1.00;99.90;;;;;;5017543;28;20479;-67
2023/01/17 08:03:00;;;;;;;6.00;4.20;;;1.00;99.90;;;;;;5012789;28;20481;-67
2023/01/17 08:05:29;;;;;;;4.30;2.70;;;1.00;99.90;;;;;;5018841;28;20489;-67
2023/01/17 08:07:56;;;;;;;2.60;2.40;;;1.10;99.90;;;;;;5028784;28;20511;-67
2023/01/17 08:10:23;;;;;;;3.00;2.50;;;1.00;99.90;;;;;;5012936;28;20521;-67
2023/01/17 08:12:51;;;;;;;3.73;2.93;;;1.00;99.90;;;;;;5019594;28;20455;-66
2023/01/17 08:15:18;;;;;;;3.60;3.30;;;1.00;99.90;;;;;;5016299;28;20501;-67
2023/01/17 08:17:46;;;;;;;3.70;2.77;;;1.00;99.90;;;;;;5015900;28;20489;-67
2023/01/17 08:20:13;;;;;;;3.40;3.20;;;1.10;99.90;;;;;;5016335;28;20549;-67
2023/01/17 08:22:39;;;;;;;3.43;3.13;;;1.20;99.90;;;;;;5016883;28;20458;-65
2023/01/17 08:25:06;;;;;;;3.23;2.80;;;2.00;99.90;;;;;;5012580;28;20483;-65
2023/01/17 08:27:33;;;;;;;12.07;5.20;;;3.40;99.90;;;;;;5011966;28;20509;-65
2023/01/17 08:30:01;;;;;;;6.30;2.93;;;4.90;99.90;;;;;;5015010;28;20458;-66
2023/01/17 08:32:28;;;;;;;6.83;3.20;;;6.00;99.90;;;;;;5024512;28;20796;-66
2023/01/17 08:34:55;;;;;;;2.87;2.53;;;7.00;99.90;;;;;;5017112;28;20458;-66
2023/01/17 08:37:22;;;;;;;7.13;2.80;;;8.00;99.90;;;;;;5019052;28;20800;-66
2023/01/17 08:39:48;;;;;;;5.50;3.60;;;8.30;99.90;;;;;;5020800;28;21149;-66
2023/01/17 08:42:15;;;;;;;4.80;3.63;;;8.30;99.90;;;;;;5023565;28;20568;-66
2023/01/17 08:44:42;;;;;;;5.03;3.50;;;7.90;99.90;;;;;;5022220;28;20799;-66
2023/01/17 08:47:10;;;;;;;3.50;3.00;;;7.60;99.90;;;;;;5012175;28;20493;-66
2023/01/17 08:49:37;;;;;;;4.63;3.30;;;7.20;99.90;;;;;;5012500;28;20501;-66
2023/01/17 08:52:04;;;;;;;3.93;3.40;;;6.70;99.90;;;;;;5025670;28;20478;-67
2023/01/17 08:54:30;;;;;;;6.03;2.97;;;6.30;99.90;;;;;;5011941;28;20447;-66
2023/01/17 08:56:57;;;;;;;4.47;3.17;;;5.80;99.90;;;;;;5013975;28;20504;-66
2023/01/17 08:59:23;;;;;;;4.10;3.20;;;5.70;99.90;;;;;;5018310;28;20509;-66
2023/01/17 09:01:51;;;;;;;3.70;2.93;;;5.60;99.90;;;;;;5012147;28;20966;-66
2023/01/17 09:04:19;;;;;;;3.43;2.70;;;5.70;99.90;;;;;;5019010;28;20486;-67
2023/01/17 09:06:47;;;;;;;3.47;2.57;;;5.80;99.90;;;;;;5023102;28;20544;-66
2023/01/17 09:09:15;;;;;;;3.60;2.80;;;6.00;99.90;;;;;;5020492;28;20451;-66
2023/01/17 09:11:42;;;;;;;2.87;2.57;;;6.10;99.90;;;;;;5017234;28;20475;-66
2023/01/17 09:14:12;;;;;;;7.60;2.80;;;6.40;99.90;;;;;;5012031;28;20497;-66
2023/01/17 09:16:38;;;;;;;5.87;2.83;;;6.60;99.90;;;;;;5014601;28;20577;-67
2023/01/17 09:19:05;;;;;;;3.00;2.80;;;6.80;99.90;;;;;;5011404;28;20458;-66
2023/01/17 09:21:33;;;;;;;4.13;2.87;;;7.00;99.90;;;;;;5012159;28;20471;-66
2023/01/17 09:23:59;;;;;;;3.13;2.83;;;7.10;99.90;;;;;;5011604;28;21032;-66
2023/01/17 09:26:28;;;;;;;3.27;2.67;;;6.80;99.90;;;;;;5023860;28;20490;-66
2023/01/17 09:28:55;;;;;;;2.77;2.53;;;6.80;99.90;;;;;;5014433;28;20458;-66
2023/01/17 09:31:23;;;;;;;3.40;2.50;;;6.80;99.90;;;;;;5014419;28;20485;-66
2023/01/17 09:33:51;;;;;;;2.70;2.50;;;7.00;99.90;;;;;;5022336;28;20451;-66
2023/01/17 09:36:18;;;;;;;2.00;1.90;;;7.30;99.90;;;;;;5024292;28;20795;-66
2023/01/17 09:38:46;;;;;;;2.57;2.37;;;7.50;99.90;;;;;;5015410;28;20450;-67
2023/01/17 09:41:22;;;;;;;2.60;2.40;;;7.50;99.90;;;;;;5011738;28;20896;-67
2023/01/17 09:43:54;;;;;;;3.00;2.53;;;7.70;99.90;;;;;;5016456;28;20458;-66
2023/01/17 09:46:24;;;;;;;2.97;2.43;;;8.00;99.90;;;;;;5017351;28;20548;-67
2023/01/17 09:48:56;;;;;;;8.40;1.90;;;8.20;99.90;;;;;;5011538;28;20544;-67
2023/01/17 09:51:24;;;;;;;2.40;2.10;;;8.30;99.90;;;;;;5012807;28;20466;-66
2023/01/17 09:53:53;;;;;;;3.20;2.07;;;8.20;99.90;;;;;;5014345;28;20576;-66
2023/01/17 09:56:28;;;;;;;2.60;1.93;;;7.90;99.90;;;;;;5011799;28;20912;-66
2023/01/17 09:59:10;;;;;;;2.30;1.97;;;7.80;99.90;;;;;;5016783;28;20898;-65
2023/01/17 10:01:43;;;;;;;5.67;2.50;;;8.20;99.90;;;;;;5011679;28;20475;-66
2023/01/17 10:04:22;;;;;;;6.50;2.53;;;8.40;99.90;;;;;;5010971;28;20505;-66
2023/01/17 10:06:59;;;;;;;2.57;2.17;;;8.80;99.90;;;;;;5011113;28;20521;-65
2023/01/17 10:09:45;;;;;;;2.53;2.27;;;9.10;99.90;;;;;;5011541;28;20454;-66
2023/01/17 10:12:24;;;;;;;2.57;2.20;;;9.30;99.90;;;;;;5015173;28;20878;-66
2023/01/17 10:15:15;;;;;;;2.37;2.17;;;9.30;99.90;;;;;;5010294;28;20442;-65
2023/01/17 10:17:53;;;;;;;2.13;1.93;;;8.90;99.90;;;;;;5011597;28;20517;-65
2023/01/17 10:20:41;;;;;;;3.73;2.10;;;8.30;99.90;;;;;;5013201;28;20908;-66
2023/01/17 10:23:32;;;;;;;4.60;1.90;;;8.20;99.90;;;;;;5016083;28;20454;-65
2023/01/17 10:26:03;;;;;;;2.17;1.97;;;8.30;99.90;;;;;;5020657;28;20536;-65
2023/01/17 10:28:34;;;;;;;4.30;2.40;;;8.30;99.90;;;;;;5018931;28;20942;-66
2023/01/17 10:31:05;;;;;;;2.33;2.13;;;8.50;99.90;;;;;;5019981;28;20478;-66
2023/01/17 10:33:44;;;;;;;3.20;2.13;;;8.90;99.90;;;;;;5018561;28;20858;-65
2023/01/17 10:36:19;;;;;;;3.97;2.33;;;9.20;99.90;;;;;;5014656;28;20869;-66
2023/01/17 10:38:48;;;;;;;6.10;2.47;;;9.30;99.90;;;;;;5022661;28;21072;-66
2023/01/17 10:41:22;;;;;;;2.10;2.00;;;9.40;99.90;;;;;;5014760;28;20881;-66
2023/01/17 10:43:57;;;;;;;2.10;1.93;;;9.70;99.90;;;;;;5019757;28;20511;-66
2023/01/17 10:46:31;;;;;;;3.13;1.90;;;9.90;99.90;;;;;;5021789;28;20517;-66
2023/01/17 10:49:00;;;;;;;2.43;1.90;;;10.10;99.90;;;;;;5014649;28;20866;-66
2023/01/17 10:51:49;;;;;;;3.00;2.23;;;10.20;99.90;;;;;;5014489;28;20997;-66
2023/01/17 10:54:28;;;;;;;2.57;2.37;;;10.40;99.90;;;;;;5016698;28;20446;-65
2023/01/17 10:56:58;;;;;;;2.00;1.80;;;10.40;99.90;;;;;;5023121;28;20448;-66
2023/01/17 10:59:31;;;;;;;3.50;2.00;;;10.50;99.90;;;;;;5017468;28;20515;-68
2023/01/17 11:01:58;;;;;;;2.10;1.90;;;10.90;99.90;;;;;;5018797;28;20479;-65
2023/01/17 11:04:34;;;;;;;2.17;2.00;;;11.10;99.90;;;;;;5019324;28;20495;-66
2023/01/17 11:07:12;;;;;;;4.97;2.00;;;11.10;99.90;;;;;;5013769;28;20492;-65
2023/01/17 11:09:41;;;;;;;2.00;1.80;;;11.20;99.90;;;;;;5018453;28;20482;-68
2023/01/17 11:12:18;;;;;;;1.90;1.80;;;11.20;99.90;;;;;;5016836;28;20478;-68
2023/01/17 11:14:57;;;;;;;3.30;2.20;;;11.10;99.90;;;;;;5016398;28;20507;-68
2023/01/17 11:17:26;;;;;;;2.70;1.90;;;10.80;99.90;;;;;;5029545;28;20467;-68
2023/01/17 11:19:53;;;;;;;3.93;1.70;;;10.50;99.90;;;;;;5018583;28;20466;-68
2023/01/17 11:22:20;;;;;;;2.43;1.80;;;10.30;99.90;;;;;;5031133;28;21027;-68
2023/01/17 11:24:54;;;;;;;2.17;1.80;;;10.40;99.90;;;;;;5018037;28;20448;-68
2023/01/17 11:27:27;;;;;;;2.10;1.90;;;10.70;99.90;;;;;;5016166;28;20552;-66
2023/01/17 11:30:06;;;;;;;2.60;2.00;;;11.00;99.90;;;;;;5020227;28;20463;-66
2023/01/17 11:32:33;;;;;;;5.57;2.00;;;10.50;99.90;;;;;;5014256;28;20961;-66
2023/01/17 11:35:15;;;;;;;2.10;1.90;;;9.90;99.90;;;;;;5012841;28;20867;-66
2023/01/17 11:37:48;;;;;;;4.80;3.00;;;9.50;99.90;;;;;;5014763;28;20460;-66
2023/01/17 11:40:21;;;;;;;1.73;1.63;;;9.60;99.90;;;;;;5013270;28;20455;-66
2023/01/17 11:43:00;;;;;;;1.93;1.83;;;9.80;99.90;;;;;;5015482;28;20455;-67
2023/01/17 11:45:28;;;;;;;2.67;2.10;;;9.90;99.90;;;;;;5013279;28;20920;-66
2023/01/17 11:48:10;;;;;;;3.20;1.80;;;9.60;99.90;;;;;;5012803;28;20840;-67
2023/01/17 11:50:38;;;;;;;2.13;1.93;;;9.20;99.90;;;;;;5012893;28;20553;-67
2023/01/17 11:53:07;;;;;;;2.20;2.00;;;9.20;99.90;;;;;;5020166;28;20512;-67
2023/01/17 11:55:34;;;;;;;2.77;2.40;;;8.60;99.90;;;;;;5012780;28;20938;-67
2023/01/17 11:58:02;;;;;;;2.63;2.43;;;8.10;99.90;;;;;;5012469;28;20443;-67
2023/01/17 12:00:36;;;;;;;5.10;2.60;;;7.40;99.90;;;;;;5019685;28;20512;-67
2023/01/17 12:03:25;;;;;;;2.43;2.20;;;6.80;99.90;;;;;;5012722;28;20458;-66
2023/01/17 12:06:01;;;;;;;3.97;2.53;;;6.10;99.90;;;;;;5014335;28;20997;-67
2023/01/17 12:08:40;;;;;;;5.63;2.43;;;5.60;99.90;;;;;;5012460;28;20450;-67
2023/01/17 12:11:16;;;;;;;5.20;2.33;;;5.30;99.90;;;;;;5012548;28;20470;-67
2023/01/17 12:14:00;;;;;;;3.67;2.77;;;5.10;99.90;;;;;;5013822;28;20878;-66
2023/01/17 12:16:48;;;;;;;2.80;2.33;;;5.00;99.90;;;;;;5019451;28;20533;-66
2023/01/17 12:19:32;;;;;;;4.10;2.80;;;4.80;99.90;;;;;;5018573;28;20478;-66
2023/01/17 12:22:15;;;;;;;3.83;2.73;;;4.60;99.90;;;;;;5011890;28;20849;-66
2023/01/17 12:25:10;;;;;;;3.53;2.73;;;4.50;99.90;;;;;;5012212;28;20935;-66
2023/01/17 12:27:48;;;;;;;3.20;3.00;;;4.40;99.90;;;;;;5011659;28;20509;-66
2023/01/17 12:30:35;;;;;;;5.07;3.50;;;4.40;99.90;;;;;;5022744;28;20945;-66
2023/01/17 12:33:14;;;;;;;3.93;3.33;;;4.40;99.90;;;;;;5013326;28;20463;-66
2023/01/17 12:35:45;;;;;;;4.20;3.10;;;4.30;99.90;;;;;;5018338;28;20470;-66
2023/01/17 12:38:18;;;;;;;4.70;3.60;;;4.30;99.90;;;;;;5018809;28;20454;-66
2023/01/17 12:40:51;;;;;;;6.70;3.07;;;4.30;99.90;;;;;;5012066;28;20470;-66
2023/01/17 12:43:24;;;;;;;6.33;3.63;;;4.30;99.90;;;;;;5019676;28;20951;-67
2023/01/17 12:45:54;;;;;;;4.40;3.47;;;4.40;99.90;;;;;;5012283;28;20513;-66
2023/01/17 12:48:22;;;;;;;7.20;3.67;;;4.40;99.90;;;;;;5021163;28;20491;-66
2023/01/17 12:50:54;;;;;;;3.10;2.50;;;4.40;99.90;;;;;;5012194;28;20478;-66
2023/01/17 12:53:30;;;;;;;3.97;3.37;;;4.40;99.90;;;;;;5012283;28;20486;-66
2023/01/17 12:56:01;;;;;;;5.27;3.57;;;4.60;99.90;;;;;;5012057;28;20516;-65
2023/01/17 12:58:35;;;;;;;3.37;2.77;;;4.60;99.90;;;;;;5011481;28;20948;-66
2023/01/17 13:01:08;;;;;;;7.10;4.47;;;4.60;99.90;;;;;;5010856;28;20482;-67
2023/01/17 13:03:43;;;;;;;3.73;3.20;;;4.50;99.90;;;;;;5011587;28;20451;-67
2023/01/17 13:06:21;;;;;;;3.67;3.00;;;4.50;99.90;;;;;;5011895;28;20454;-67
2023/01/17 13:08:53;;;;;;;6.27;2.80;;;4.60;99.90;;;;;;5012183;28;20458;-67
2023/01/17 13:11:26;;;;;;;5.00;3.30;;;4.70;99.90;;;;;;5011846;28;20536;-66
2023/01/17 13:13:56;;;;;;;3.87;3.47;;;4.60;99.90;;;;;;5019946;28;20486;-67
2023/01/17 13:16:28;;;;;;;3.57;3.20;;;4.60;99.90;;;;;;5014511;28;20451;-67
2023/01/17 13:18:57;;;;;;;6.73;2.80;;;4.70;99.90;;;;;;5015299;28;20458;-68
2023/01/17 13:21:29;;;;;;;12.77;3.63;;;4.70;99.90;;;;;;5012823;28;20479;-68
2023/01/17 13:24:22;;;;;;;3.40;2.70;;;5.10;99.90;;;;;;5012047;28;20454;-68
2023/01/17 13:27:15;;;;;;;5.50;2.93;;;6.00;99.90;;;;;;5014531;28;20495;-68
2023/01/17 13:29:56;;;;;;;5.30;3.20;;;7.10;99.90;;;;;;5017127;28;20497;-66
2023/01/17 13:32:54;;;;;;;5.20;3.40;;;7.40;99.90;;;;;;5020897;28;20234;-67
2023/01/17 13:35:26;;;;;;;6.50;3.80;;;7.20;99.90;;;;;;5012210;28;20858;-67
2023/01/17 13:38:08;;;;;;;3.77;3.37;;;7.10;99.90;;;;;;5026395;28;20450;-67
2023/01/17 13:40:48;;;;;;;4.27;2.47;;;7.20;99.90;;;;;;5030516;28;20478;-67
2023/01/17 13:43:19;;;;;;;3.73;2.27;;;7.30;99.90;;;;;;5023911;28;20946;-67
2023/01/17 13:45:52;;;;;;;2.83;2.63;;;7.40;99.90;;;;;;5017554;28;20512;-67
2023/01/17 13:48:31;;;;;;;4.63;2.20;;;7.50;99.90;;;;;;5015667;28;20504;-67
2023/01/17 13:51:00;;;;;;;2.13;2.00;;;7.50;99.90;;;;;;5023490;28;20485;-67
2023/01/17 13:53:55;;;;;;;2.50;2.40;;;7.50;99.90;;;;;;5021540;28;20493;-67
2023/01/17 13:56:31;;;;;;;3.97;2.07;;;7.60;99.90;;;;;;5013486;28;20997;-67
2023/01/17 13:59:01;;;;;;;2.83;2.63;;;7.40;99.90;;;;;;5019555;28;20457;-67
2023/01/17 14:01:50;;;;;;;3.40;2.43;;;7.20;99.90;;;;;;5015566;28;20507;-67
2023/01/17 14:04:18;;;;;;;2.50;2.30;;;7.00;99.90;;;;;;5014531;28;20521;-67
2023/01/17 14:06:47;;;;;;;3.87;2.50;;;6.80;99.90;;;;;;5024102;28;20452;-67
2023/01/17 14:09:23;;;;;;;4.33;2.33;;;6.70;99.90;;;;;;5017878;28;20463;-67
2023/01/17 14:11:55;;;;;;;3.47;2.60;;;6.50;99.90;;;;;;5013975;28;20485;-67
2023/01/17 14:14:45;;;;;;;4.93;3.00;;;6.40;99.90;;;;;;5020985;28;20625;-67
2023/01/17 14:17:45;;;;;;;6.60;2.50;;;6.30;99.90;;;;;;5011080;28;20513;-67
2023/01/17 14:20:49;;;;;;;9.20;3.20;;;6.20;99.90;;;;;;5010976;28;20941;-68
2023/01/17 14:23:40;;;;;;;5.00;2.80;;;6.10;99.90;;;;;;5015275;28;20461;-68
2023/01/17 14:26:30;;;;;;;4.23;2.60;;;6.10;99.90;;;;;;5011327;28;20486;-67
2023/01/17 14:28:58;;;;;;;7.10;2.83;;;5.90;99.90;;;;;;5017320;28;20501;-67
2023/01/17 14:31:27;;;;;;;3.63;2.70;;;5.90;99.90;;;;;;5015445;28;20478;-67
2023/01/17 14:33:54;;;;;;;5.87;2.50;;;5.80;99.90;;;;;;5023587;28;20506;-67